sensor_id;sensor_type;location;lat;lon;timestamp;pressure;altitude;pressure_sealevel;temperature;humidity
3142;BME280;1581;51.568;6.998;2022-11-27T00:00:11;101953.81;;;7.90;100.00
3142;BME280;1581;51.568;6.998;2022-11-27T00:02:40;101950.34;;;7.80;100.00
3142;BME280;1581;51.568;6.998;2022-11-27T00:05:08;101942.66;;;7.86;100.00
3142;BME280;1581;51.568;6.998;2022-11-27T00:07:37;101943.75;;;7.93;100.00
3142;BME280;1581;51.568;6.998;2022-11-27T00:10:07;101942.91;;;7.83;100.00
3142;BME280;1581;51.568;6.998;2022-11-27T00:12:35;101937.34;;;7.77;100.00
3142;BME280;1581;51.568;6.998;2022-11-27T00:15:04;101929.66;;;7.93;100.00
3142;BME280;1581;51.568;6.998;2022-11-27T00:17:36;101930.75;;;7.90;100.00
3142;BME280;1581;51.568;6.998;2022-11-27T00:20:09;101939.84;;;7.88;100.00
3142;BME280;1581;51.568;6.998;2022-11-27T00:22:37;101933.84;;;7.86;100.00
3142;BME280;1581;51.568;6.998;2022-11-27T00:25:06;101922.78;;;7.90;100.00
3142;BME280;1581;51.568;6.998;2022-11-27T00:27:34;101920.13;;;7.90;100.00
3142;BME280;1581;51.568;6.998;2022-11-27T00:30:01;101930.47;;;7.93;100.00
3142;BME280;1581;51.568;6.998;2022-11-27T00:32:29;101928.00;;;7.73;100.00
3142;BME280;1581;51.568;6.998;2022-11-27T00:34:56;101921.69;;;7.74;100.00
3142;BME280;1581;51.568;6.998;2022-11-27T00:37:31;101932.88;;;7.77;100.00
3142;BME280;1581;51.568;6.998;2022-11-27T00:40:00;101940.44;;;7.54;100.00
3142;BME280;1581;51.568;6.998;2022-11-27T00:42:27;101936.38;;;7.68;100.00
3142;BME280;1581;51.568;6.998;2022-11-27T00:44:55;101937.34;;;7.77;100.00
3142;BME280;1581;51.568;6.998;2022-11-27T00:47:22;101925.22;;;7.56;100.00
3142;BME280;1581;51.568;6.998;2022-11-27T00:49:53;101922.28;;;7.68;100.00
3142;BME280;1581;51.568;6.998;2022-11-27T00:52:20;101931.50;;;7.55;100.00
3142;BME280;1581;51.568;6.998;2022-11-27T00:54:49;101927.56;;;7.59;100.00
3142;BME280;1581;51.568;6.998;2022-11-27T00:57:17;101930.94;;;7.42;100.00
3142;BME280;1581;51.568;6.998;2022-11-27T00:59:44;101924.66;;;7.62;100.00
3142;BME280;1581;51.568;6.998;2022-11-27T01:02:11;101924.94;;;7.68;100.00
3142;BME280;1581;51.568;6.998;2022-11-27T01:04:39;101920.59;;;7.76;100.00
3142;BME280;1581;51.568;6.998;2022-11-27T01:07:06;101927.44;;;7.51;100.00
3142;BME280;1581;51.568;6.998;2022-11-27T01:09:34;101932.63;;;7.33;100.00
3142;BME280;1581;51.568;6.998;2022-11-27T01:12:04;101920.63;;;7.29;100.00
3142;BME280;1581;51.568;6.998;2022-11-27T01:14:32;101914.34;;;7.30;100.00
3142;BME280;1581;51.568;6.998;2022-11-27T01:17:07;101903.59;;;7.41;100.00
3142;BME280;1581;51.568;6.998;2022-11-27T01:19:36;101889.22;;;7.53;100.00
3142;BME280;1581;51.568;6.998;2022-11-27T01:22:04;101895.19;;;7.55;100.00
3142;BME280;1581;51.568;6.998;2022-11-27T01:24:31;101899.09;;;7.61;100.00
3142;BME280;1581;51.568;6.998;2022-11-27T01:26:59;101888.94;;;7.47;100.00
3142;BME280;1581;51.568;6.998;2022-11-27T01:29:28;101890.31;;;7.51;100.00
3142;BME280;1581;51.568;6.998;2022-11-27T01:31:55;101889.91;;;7.46;100.00
3142;BME280;1581;51.568;6.998;2022-11-27T01:34:23;101898.72;;;7.37;100.00
3142;BME280;1581;51.568;6.998;2022-11-27T01:36:50;101895.34;;;7.25;100.00
3142;BME280;1581;51.568;6.998;2022-11-27T01:39:19;101898.28;;;7.32;100.00
3142;BME280;1581;51.568;6.998;2022-11-27T01:41:49;101890.88;;;7.45;100.00
3142;BME280;1581;51.568;6.998;2022-11-27T01:44:54;101889.34;;;7.33;100.00
3142;BME280;1581;51.568;6.998;2022-11-27T01:47:43;101898.56;;;7.10;100.00
3142;BME280;1581;51.568;6.998;2022-11-27T01:50:19;101886.03;;;7.21;100.00
3142;BME280;1581;51.568;6.998;2022-11-27T01:52:52;101884.91;;;7.33;100.00
3142;BME280;1581;51.568;6.998;2022-11-27T01:55:29;101884.47;;;7.19;100.00
3142;BME280;1581;51.568;6.998;2022-11-27T01:58:03;101881.81;;;7.19;100.00
3142;BME280;1581;51.568;6.998;2022-11-27T02:00:35;101880.59;;;7.13;100.00
3142;BME280;1581;51.568;6.998;2022-11-27T02:03:03;101883.09;;;7.15;100.00
3142;BME280;1581;51.568;6.998;2022-11-27T02:05:31;101884.06;;;7.14;100.00
3142;BME280;1581;51.568;6.998;2022-11-27T02:08:03;101878.59;;;7.15;100.00
3142;BME280;1581;51.568;6.998;2022-11-27T02:10:45;101875.81;;;7.07;100.00
3142;BME280;1581;51.568;6.998;2022-11-27T02:13:22;101873.53;;;6.75;100.00
3142;BME280;1581;51.568;6.998;2022-11-27T02:16:05;101868.13;;;6.85;100.00
3142;BME280;1581;51.568;6.998;2022-11-27T02:18:42;101865.78;;;6.82;100.00
3142;BME280;1581;51.568;6.998;2022-11-27T02:21:17;101859.31;;;6.76;100.00
3142;BME280;1581;51.568;6.998;2022-11-27T02:24:23;101850.00;;;6.90;100.00
3142;BME280;1581;51.568;6.998;2022-11-27T02:27:11;101855.03;;;6.84;100.00
3142;BME280;1581;51.568;6.998;2022-11-27T02:29:48;101851.50;;;6.55;100.00
3142;BME280;1581;51.568;6.998;2022-11-27T02:32:22;101857.72;;;6.45;100.00
3142;BME280;1581;51.568;6.998;2022-11-27T02:34:57;101851.75;;;6.52;100.00
3142;BME280;1581;51.568;6.998;2022-11-27T02:37:33;101843.25;;;6.49;100.00
3142;BME280;1581;51.568;6.998;2022-11-27T02:40:08;101837.75;;;6.22;100.00
3142;BME280;1581;51.568;6.998;2022-11-27T02:42:40;101832.97;;;6.16;100.00
3142;BME280;1581;51.568;6.998;2022-11-27T02:45:13;101834.88;;;6.04;100.00
3142;BME280;1581;51.568;6.998;2022-11-27T02:47:44;101827.69;;;6.16;100.00
3142;BME280;1581;51.568;6.998;2022-11-27T02:50:18;101824.25;;;5.95;100.00
3142;BME280;1581;51.568;6.998;2022-11-27T02:52:48;101809.63;;;5.91;100.00
3142;BME280;1581;51.568;6.998;2022-11-27T02:55:21;101807.44;;;5.76;100.00
3142;BME280;1581;51.568;6.998;2022-11-27T02:57:51;101808.03;;;5.79;100.00
3142;BME280;1581;51.568;6.998;2022-11-27T03:00:23;101807.66;;;5.63;100.00
3142;BME280;1581;51.568;6.998;2022-11-27T03:02:54;101797.97;;;5.73;100.00
3142;BME280;1581;51.568;6.998;2022-11-27T03:05:27;101798.06;;;5.62;100.00
3142;BME280;1581;51.568;6.998;2022-11-27T03:08:01;101788.00;;;5.77;100.00
3142;BME280;1581;51.568;6.998;2022-11-27T03:10:39;101787.09;;;5.76;100.00
3142;BME280;1581;51.568;6.998;2022-11-27T03:13:08;101789.41;;;5.60;100.00
3142;BME280;1581;51.568;6.998;2022-11-27T03:15:44;101778.66;;;5.52;100.00
3142;BME280;1581;51.568;6.998;2022-11-27T03:18:23;101779.34;;;5.54;100.00
3142;BME280;1581;51.568;6.998;2022-11-27T03:21:07;101765.16;;;5.55;100.00
3142;BME280;1581;51.568;6.998;2022-11-27T03:23:35;101766.13;;;5.54;100.00
3142;BME280;1581;51.568;6.998;2022-11-27T03:26:07;101771.13;;;5.48;100.00
3142;BME280;1581;51.568;6.998;2022-11-27T03:28:35;101768.34;;;5.49;100.00
3142;BME280;1581;51.568;6.998;2022-11-27T03:31:04;101772.41;;;5.53;100.00
3142;BME280;1581;51.568;6.998;2022-11-27T03:33:32;101772.91;;;5.47;100.00
3142;BME280;1581;51.568;6.998;2022-11-27T03:35:59;101774.91;;;5.34;100.00
3142;BME280;1581;51.568;6.998;2022-11-27T03:38:27;101775.94;;;5.43;100.00
3142;BME280;1581;51.568;6.998;2022-11-27T03:41:00;101781.19;;;5.33;100.00
3142;BME280;1581;51.568;6.998;2022-11-27T03:43:37;101785.78;;;5.31;100.00
3142;BME280;1581;51.568;6.998;2022-11-27T03:46:18;101780.69;;;5.69;100.00
3142;BME280;1581;51.568;6.998;2022-11-27T03:48:59;101777.03;;;5.91;100.00
3142;BME280;1581;51.568;6.998;2022-11-27T03:51:37;101769.09;;;5.91;100.00
3142;BME280;1581;51.568;6.998;2022-11-27T03:54:12;101778.06;;;5.99;100.00
3142;BME280;1581;51.568;6.998;2022-11-27T03:56:50;101777.22;;;5.98;100.00
3142;BME280;1581;51.568;6.998;2022-11-27T03:59:23;101760.09;;;6.02;100.00
3142;BME280;1581;51.568;6.998;2022-11-27T04:01:53;101761.56;;;6.35;100.00
3142;BME280;1581;51.568;6.998;2022-11-27T04:04:20;101757.66;;;6.20;100.00
3142;BME280;1581;51.568;6.998;2022-11-27T04:06:48;101735.66;;;6.48;100.00
3142;BME280;1581;51.568;6.998;2022-11-27T04:09:15;101739.03;;;6.50;100.00
3142;BME280;1581;51.568;6.998;2022-11-27T04:11:43;101740.00;;;6.49;100.00
3142;BME280;1581;51.568;6.998;2022-11-27T04:14:10;101734.94;;;6.27;100.00
3142;BME280;1581;51.568;6.998;2022-11-27T04:16:38;101735.22;;;6.33;100.00
3142;BME280;1581;51.568;6.998;2022-11-27T04:19:06;101724.13;;;6.58;100.00
3142;BME280;1581;51.568;6.998;2022-11-27T04:21:34;101722.44;;;6.76;100.00
3142;BME280;1581;51.568;6.998;2022-11-27T04:24:02;101724.66;;;6.81;100.00
3142;BME280;1581;51.568;6.998;2022-11-27T04:26:30;101724.09;;;6.86;100.00
3142;BME280;1581;51.568;6.998;2022-11-27T04:28:57;101706.66;;;6.84;100.00
3142;BME280;1581;51.568;6.998;2022-11-27T04:31:25;101713.38;;;6.79;100.00
3142;BME280;1581;51.568;6.998;2022-11-27T04:33:52;101706.69;;;6.65;100.00
3142;BME280;1581;51.568;6.998;2022-11-27T04:36:21;101701.78;;;6.70;100.00
3142;BME280;1581;51.568;6.998;2022-11-27T04:38:49;101694.41;;;6.92;100.00
3142;BME280;1581;51.568;6.998;2022-11-27T04:41:16;101699.25;;;6.97;100.00
3142;BME280;1581;51.568;6.998;2022-11-27T04:43:44;101692.41;;;7.04;100.00
3142;BME280;1581;51.568;6.998;2022-11-27T04:46:11;101688.94;;;7.03;100.00
3142;BME280;1581;51.568;6.998;2022-11-27T04:48:38;101697.31;;;6.89;100.00
3142;BME280;1581;51.568;6.998;2022-11-27T04:51:08;101687.53;;;6.99;100.00
3142;BME280;1581;51.568;6.998;2022-11-27T04:53:39;101678.56;;;7.19;100.00
3142;BME280;1581;51.568;6.998;2022-11-27T04:56:12;101679.69;;;7.17;100.00
3142;BME280;1581;51.568;6.998;2022-11-27T04:58:49;101670.94;;;7.07;100.00
3142;BME280;1581;51.568;6.998;2022-11-27T05:01:21;101668.81;;;7.10;100.00
3142;BME280;1581;51.568;6.998;2022-11-27T05:03:48;101670.00;;;7.25;100.00
3142;BME280;1581;51.568;6.998;2022-11-27T05:06:16;101655.22;;;7.32;100.00
3142;BME280;1581;51.568;6.998;2022-11-27T05:08:45;101653.22;;;7.34;100.00
3142;BME280;1581;51.568;6.998;2022-11-27T05:11:15;101653.03;;;7.45;100.00
3142;BME280;1581;51.568;6.998;2022-11-27T05:13:43;101667.06;;;7.38;100.00
3142;BME280;1581;51.568;6.998;2022-11-27T05:16:10;101661.59;;;7.39;100.00
3142;BME280;1581;51.568;6.998;2022-11-27T05:18:38;101666.50;;;7.34;100.00
3142;BME280;1581;51.568;6.998;2022-11-27T05:21:06;101668.78;;;7.20;100.00
3142;BME280;1581;51.568;6.998;2022-11-27T05:23:34;101660.19;;;6.99;100.00
3142;BME280;1581;51.568;6.998;2022-11-27T05:26:03;101658.97;;;6.93;100.00
3142;BME280;1581;51.568;6.998;2022-11-27T05:28:31;101649.03;;;7.05;100.00
3142;BME280;1581;51.568;6.998;2022-11-27T05:30:58;101648.53;;;7.28;100.00
3142;BME280;1581;51.568;6.998;2022-11-27T05:33:26;101647.00;;;7.53;100.00
3142;BME280;1581;51.568;6.998;2022-11-27T05:35:53;101642.56;;;7.53;100.00
3142;BME280;1581;51.568;6.998;2022-11-27T05:38:21;101638.88;;;7.64;100.00
3142;BME280;1581;51.568;6.998;2022-11-27T05:40:50;101645.59;;;7.58;100.00
3142;BME280;1581;51.568;6.998;2022-11-27T05:43:19;101645.13;;;7.72;100.00
3142;BME280;1581;51.568;6.998;2022-11-27T05:45:46;101639.97;;;7.34;100.00
3142;BME280;1581;51.568;6.998;2022-11-27T05:48:14;101639.69;;;7.37;100.00
3142;BME280;1581;51.568;6.998;2022-11-27T05:50:41;101638.63;;;7.57;100.00
3142;BME280;1581;51.568;6.998;2022-11-27T05:53:09;101641.19;;;7.49;100.00
3142;BME280;1581;51.568;6.998;2022-11-27T05:55:36;101632.00;;;7.44;100.00
3142;BME280;1581;51.568;6.998;2022-11-27T05:58:04;101632.50;;;7.57;100.00
3142;BME280;1581;51.568;6.998;2022-11-27T06:00:32;101628.16;;;7.56;100.00
3142;BME280;1581;51.568;6.998;2022-11-27T06:03:00;101623.63;;;7.39;100.00
3142;BME280;1581;51.568;6.998;2022-11-27T06:05:27;101619.09;;;7.31;100.00
3142;BME280;1581;51.568;6.998;2022-11-27T06:07:55;101624.41;;;7.49;100.00
3142;BME280;1581;51.568;6.998;2022-11-27T06:10:22;101617.50;;;7.38;100.00
3142;BME280;1581;51.568;6.998;2022-11-27T06:12:50;101611.25;;;7.30;100.00
3142;BME280;1581;51.568;6.998;2022-11-27T06:15:17;101612.09;;;7.30;100.00
3142;BME280;1581;51.568;6.998;2022-11-27T06:17:48;101615.13;;;7.35;100.00
3142;BME280;1581;51.568;6.998;2022-11-27T06:20:16;101604.78;;;7.42;100.00
3142;BME280;1581;51.568;6.998;2022-11-27T06:22:45;101608.94;;;7.44;100.00
3142;BME280;1581;51.568;6.998;2022-11-27T06:25:13;101611.75;;;7.43;100.00
3142;BME280;1581;51.568;6.998;2022-11-27T06:27:40;101607.88;;;7.37;100.00
3142;BME280;1581;51.568;6.998;2022-11-27T06:30:09;101606.06;;;7.38;100.00
3142;BME280;1581;51.568;6.998;2022-11-27T06:32:37;101596.81;;;7.15;100.00
3142;BME280;1581;51.568;6.998;2022-11-27T06:35:07;101602.28;;;7.13;100.00
3142;BME280;1581;51.568;6.998;2022-11-27T06:37:35;101607.69;;;7.21;100.00
3142;BME280;1581;51.568;6.998;2022-11-27T06:40:04;101601.78;;;7.27;100.00
3142;BME280;1581;51.568;6.998;2022-11-27T06:42:35;101599.28;;;7.26;100.00
3142;BME280;1581;51.568;6.998;2022-11-27T06:45:04;101596.19;;;7.30;100.00
3142;BME280;1581;51.568;6.998;2022-11-27T06:47:31;101586.13;;;7.34;100.00
3142;BME280;1581;51.568;6.998;2022-11-27T06:49:59;101587.88;;;7.43;100.00
3142;BME280;1581;51.568;6.998;2022-11-27T06:52:27;101588.22;;;7.57;100.00
3142;BME280;1581;51.568;6.998;2022-11-27T06:54:55;101590.81;;;7.40;100.00
3142;BME280;1581;51.568;6.998;2022-11-27T06:57:23;101592.38;;;7.42;100.00
3142;BME280;1581;51.568;6.998;2022-11-27T06:59:51;101583.13;;;7.46;100.00
3142;BME280;1581;51.568;6.998;2022-11-27T07:02:18;101580.66;;;7.62;100.00
3142;BME280;1581;51.568;6.998;2022-11-27T07:04:46;101581.00;;;7.50;100.00
3142;BME280;1581;51.568;6.998;2022-11-27T07:07:13;101582.63;;;7.60;100.00
3142;BME280;1581;51.568;6.998;2022-11-27T07:09:42;101577.66;;;7.74;100.00
3142;BME280;1581;51.568;6.998;2022-11-27T07:12:10;101571.19;;;7.77;100.00
3142;BME280;1581;51.568;6.998;2022-11-27T07:14:38;101570.44;;;7.84;100.00
3142;BME280;1581;51.568;6.998;2022-11-27T07:17:05;101563.78;;;7.98;100.00
3142;BME280;1581;51.568;6.998;2022-11-27T07:19:33;101556.09;;;7.95;100.00
3142;BME280;1581;51.568;6.998;2022-11-27T07:22:00;101542.31;;;8.09;100.00
3142;BME280;1581;51.568;6.998;2022-11-27T07:24:28;101550.63;;;8.14;100.00
3142;BME280;1581;51.568;6.998;2022-11-27T07:26:57;101551.41;;;8.24;100.00
3142;BME280;1581;51.568;6.998;2022-11-27T07:29:25;101550.75;;;8.22;100.00
3142;BME280;1581;51.568;6.998;2022-11-27T07:31:52;101554.16;;;8.32;100.00
3142;BME280;1581;51.568;6.998;2022-11-27T07:34:20;101553.16;;;8.33;100.00
3142;BME280;1581;51.568;6.998;2022-11-27T07:36:47;101559.53;;;8.40;100.00
3142;BME280;1581;51.568;6.998;2022-11-27T07:39:16;101556.34;;;8.36;100.00
3142;BME280;1581;51.568;6.998;2022-11-27T07:41:44;101547.22;;;8.39;100.00
3142;BME280;1581;51.568;6.998;2022-11-27T07:44:17;101552.00;;;8.53;100.00
3142;BME280;1581;51.568;6.998;2022-11-27T07:46:44;101552.56;;;8.64;100.00
3142;BME280;1581;51.568;6.998;2022-11-27T07:49:12;101547.31;;;8.54;100.00
3142;BME280;1581;51.568;6.998;2022-11-27T07:51:40;101540.00;;;8.49;100.00
3142;BME280;1581;51.568;6.998;2022-11-27T07:54:08;101538.31;;;8.73;100.00
3142;BME280;1581;51.568;6.998;2022-11-27T07:56:36;101542.22;;;8.86;100.00
3142;BME280;1581;51.568;6.998;2022-11-27T07:59:04;101538.09;;;8.92;100.00
3142;BME280;1581;51.568;6.998;2022-11-27T08:01:33;101537.31;;;8.99;100.00
3142;BME280;1581;51.568;6.998;2022-11-27T08:04:00;101531.69;;;9.10;100.00
3142;BME280;1581;51.568;6.998;2022-11-27T08:06:28;101529.00;;;9.02;100.00
3142;BME280;1581;51.568;6.998;2022-11-27T08:09:03;101535.53;;;9.08;100.00
3142;BME280;1581;51.568;6.998;2022-11-27T08:11:38;101527.41;;;9.17;100.00
3142;BME280;1581;51.568;6.998;2022-11-27T08:14:58;101518.63;;;9.25;100.00
3142;BME280;1581;51.568;6.998;2022-11-27T08:17:31;101515.00;;;9.41;100.00
3142;BME280;1581;51.568;6.998;2022-11-27T08:20:08;101509.88;;;9.48;100.00
3142;BME280;1581;51.568;6.998;2022-11-27T08:22:36;101511.25;;;9.60;100.00
3142;BME280;1581;51.568;6.998;2022-11-27T08:25:05;101505.06;;;9.59;100.00
3142;BME280;1581;51.568;6.998;2022-11-27T08:27:32;101507.91;;;9.74;100.00
3142;BME280;1581;51.568;6.998;2022-11-27T08:30:01;101502.94;;;9.79;100.00
3142;BME280;1581;51.568;6.998;2022-11-27T08:32:31;101503.28;;;9.92;100.00
3142;BME280;1581;51.568;6.998;2022-11-27T08:34:58;101501.31;;;10.10;100.00
3142;BME280;1581;51.568;6.998;2022-11-27T08:37:27;101503.66;;;10.21;100.00
3142;BME280;1581;51.568;6.998;2022-11-27T08:39:57;101506.63;;;10.18;100.00
3142;BME280;1581;51.568;6.998;2022-11-27T08:42:25;101515.97;;;10.22;100.00
3142;BME280;1581;51.568;6.998;2022-11-27T08:44:55;101509.63;;;10.15;100.00
3142;BME280;1581;51.568;6.998;2022-11-27T08:47:23;101505.13;;;10.23;100.00
3142;BME280;1581;51.568;6.998;2022-11-27T08:49:55;101510.63;;;10.37;100.00
3142;BME280;1581;51.568;6.998;2022-11-27T08:52:26;101496.94;;;10.48;100.00
3142;BME280;1581;51.568;6.998;2022-11-27T08:54:53;101499.28;;;10.51;100.00
3142;BME280;1581;51.568;6.998;2022-11-27T08:57:21;101496.75;;;10.66;100.00
3142;BME280;1581;51.568;6.998;2022-11-27T08:59:48;101494.22;;;10.72;100.00
3142;BME280;1581;51.568;6.998;2022-11-27T09:02:16;101498.06;;;10.78;100.00
3142;BME280;1581;51.568;6.998;2022-11-27T09:04:43;101498.06;;;10.78;100.00
3142;BME280;1581;51.568;6.998;2022-11-27T09:07:14;101496.38;;;10.69;100.00
3142;BME280;1581;51.568;6.998;2022-11-27T09:09:42;101495.38;;;10.70;100.00
3142;BME280;1581;51.568;6.998;2022-11-27T09:12:09;101494.91;;;10.66;100.00
3142;BME280;1581;51.568;6.998;2022-11-27T09:14:39;101492.78;;;10.46;100.00
3142;BME280;1581;51.568;6.998;2022-11-27T09:17:08;101484.31;;;10.42;100.00
3142;BME280;1581;51.568;6.998;2022-11-27T09:19:36;101478.13;;;10.42;100.00
3142;BME280;1581;51.568;6.998;2022-11-27T09:22:03;101487.47;;;10.46;100.00
3142;BME280;1581;51.568;6.998;2022-11-27T09:24:32;101484.28;;;10.50;100.00
3142;BME280;1581;51.568;6.998;2022-11-27T09:27:00;101480.78;;;10.58;100.00
3142;BME280;1581;51.568;6.998;2022-11-27T09:29:27;101472.09;;;10.64;100.00
3142;BME280;1581;51.568;6.998;2022-11-27T09:31:55;101474.25;;;10.68;100.00
3142;BME280;1581;51.568;6.998;2022-11-27T09:34:22;101467.03;;;10.85;100.00
3142;BME280;1581;51.568;6.998;2022-11-27T09:36:50;101468.47;;;10.95;100.00
3142;BME280;1581;51.568;6.998;2022-11-27T09:39:18;101470.28;;;11.03;100.00
3142;BME280;1581;51.568;6.998;2022-11-27T09:41:51;101469.69;;;11.15;100.00
3142;BME280;1581;51.568;6.998;2022-11-27T09:44:34;101457.44;;;11.28;100.00
3142;BME280;1581;51.568;6.998;2022-11-27T09:47:13;101460.19;;;11.43;100.00
3142;BME280;1581;51.568;6.998;2022-11-27T09:49:47;101448.44;;;11.60;100.00
3142;BME280;1581;51.568;6.998;2022-11-27T09:52:22;101444.16;;;11.73;100.00
3142;BME280;1581;51.568;6.998;2022-11-27T09:54:56;101447.25;;;11.85;99.66
3142;BME280;1581;51.568;6.998;2022-11-27T09:57:33;101445.81;;;11.97;97.91
3142;BME280;1581;51.568;6.998;2022-11-27T10:00:06;101450.91;;;11.84;96.87
3142;BME280;1581;51.568;6.998;2022-11-27T10:02:37;101458.16;;;11.98;96.53
3142;BME280;1581;51.568;6.998;2022-11-27T10:05:16;101454.13;;;12.02;95.07
3142;BME280;1581;51.568;6.998;2022-11-27T10:08:12;101453.75;;;12.04;94.83
3142;BME280;1581;51.568;6.998;2022-11-27T10:11:00;101452.06;;;12.03;94.88
3142;BME280;1581;51.568;6.998;2022-11-27T10:13:59;101458.25;;;11.37;91.54
3142;BME280;1581;51.568;6.998;2022-11-27T10:16:37;101449.03;;;11.70;90.87
3142;BME280;1581;51.568;6.998;2022-11-27T10:19:19;101452.88;;;11.90;91.31
3142;BME280;1581;51.568;6.998;2022-11-27T10:21:57;101447.38;;;12.05;91.96
3142;BME280;1581;51.568;6.998;2022-11-27T10:24:34;101445.16;;;11.95;89.52
3142;BME280;1581;51.568;6.998;2022-11-27T10:27:15;101446.59;;;12.19;89.03
3142;BME280;1581;51.568;6.998;2022-11-27T10:29:50;101448.41;;;12.04;86.14
3142;BME280;1581;51.568;6.998;2022-11-27T10:32:22;101434.44;;;12.17;87.77
3142;BME280;1581;51.568;6.998;2022-11-27T10:34:54;101442.97;;;11.23;85.60
3142;BME280;1581;51.568;6.998;2022-11-27T10:37:32;101437.69;;;11.68;86.31
3142;BME280;1581;51.568;6.998;2022-11-27T10:40:04;101440.00;;;11.93;87.36
3142;BME280;1581;51.568;6.998;2022-11-27T10:42:39;101441.22;;;12.05;89.32
3142;BME280;1581;51.568;6.998;2022-11-27T10:45:21;101426.47;;;12.09;88.87
3142;BME280;1581;51.568;6.998;2022-11-27T10:47:51;101432.75;;;11.79;85.93
3142;BME280;1581;51.568;6.998;2022-11-27T10:50:19;101417.19;;;12.05;85.57
3142;BME280;1581;51.568;6.998;2022-11-27T10:52:54;101417.00;;;12.06;84.70
3142;BME280;1581;51.568;6.998;2022-11-27T10:55:33;101406.03;;;12.02;84.44
3142;BME280;1581;51.568;6.998;2022-11-27T10:58:16;101398.19;;;12.00;84.33
3142;BME280;1581;51.568;6.998;2022-11-27T11:00:58;101405.19;;;12.01;86.43
3142;BME280;1581;51.568;6.998;2022-11-27T11:03:28;101403.22;;;11.58;83.41
3142;BME280;1581;51.568;6.998;2022-11-27T11:06:06;101399.50;;;11.67;84.42
3142;BME280;1581;51.568;6.998;2022-11-27T11:08:35;101385.94;;;11.91;85.86
3142;BME280;1581;51.568;6.998;2022-11-27T11:11:06;101382.69;;;11.81;86.17
3142;BME280;1581;51.568;6.998;2022-11-27T11:13:43;101370.91;;;11.90;86.14
3142;BME280;1581;51.568;6.998;2022-11-27T11:16:20;101375.44;;;11.90;86.43
3142;BME280;1581;51.568;6.998;2022-11-27T11:18:52;101369.09;;;12.05;86.69
3142;BME280;1581;51.568;6.998;2022-11-27T11:21:36;101357.41;;;11.92;86.53
3142;BME280;1581;51.568;6.998;2022-11-27T11:24:11;101353.06;;;12.05;85.30
3142;BME280;1581;51.568;6.998;2022-11-27T11:26:46;101346.16;;;12.10;85.43
3142;BME280;1581;51.568;6.998;2022-11-27T11:29:27;101344.50;;;12.09;88.40
3142;BME280;1581;51.568;6.998;2022-11-27T11:32:05;101335.75;;;12.15;87.76
3142;BME280;1581;51.568;6.998;2022-11-27T11:34:35;101332.81;;;12.10;86.63
3142;BME280;1581;51.568;6.998;2022-11-27T11:37:18;101313.81;;;12.20;85.99
3142;BME280;1581;51.568;6.998;2022-11-27T11:39:54;101313.09;;;12.26;87.15
3142;BME280;1581;51.568;6.998;2022-11-27T11:42:26;101301.94;;;12.22;88.99
3142;BME280;1581;51.568;6.998;2022-11-27T11:45:01;101302.66;;;12.16;88.49
3142;BME280;1581;51.568;6.998;2022-11-27T11:47:31;101293.56;;;12.11;87.20
3142;BME280;1581;51.568;6.998;2022-11-27T11:50:01;101286.19;;;12.13;88.84
3142;BME280;1581;51.568;6.998;2022-11-27T11:52:53;101279.53;;;12.09;88.99
3142;BME280;1581;51.568;6.998;2022-11-27T11:58:49;101251.63;;;11.68;87.94
3142;BME280;1581;51.568;6.998;2022-11-27T12:01:39;101231.69;;;11.64;89.77
3142;BME280;1581;51.568;6.998;2022-11-27T12:04:46;101229.78;;;11.50;89.50
3142;BME280;1581;51.568;6.998;2022-11-27T12:07:28;101227.81;;;11.67;90.70
3142;BME280;1581;51.568;6.998;2022-11-27T12:10:07;101218.28;;;11.50;91.50
3142;BME280;1581;51.568;6.998;2022-11-27T12:12:51;101206.00;;;11.63;93.04
3142;BME280;1581;51.568;6.998;2022-11-27T12:15:26;101215.22;;;11.61;93.66
3142;BME280;1581;51.568;6.998;2022-11-27T12:18:01;101221.44;;;11.53;93.30
3142;BME280;1581;51.568;6.998;2022-11-27T12:20:51;101222.34;;;11.09;96.36
3142;BME280;1581;51.568;6.998;2022-11-27T12:23:58;101229.13;;;10.97;95.60
3142;BME280;1581;51.568;6.998;2022-11-27T12:26:41;101231.78;;;10.97;96.24
3142;BME280;1581;51.568;6.998;2022-11-27T12:35:30;101221.22;;;11.40;95.51
3142;BME280;1581;51.568;6.998;2022-11-27T12:38:13;101217.16;;;11.30;96.48
3142;BME280;1581;51.568;6.998;2022-11-27T12:41:00;101217.63;;;11.33;97.68
3142;BME280;1581;51.568;6.998;2022-11-27T12:43:36;101217.06;;;11.38;98.64
3142;BME280;1581;51.568;6.998;2022-11-27T12:46:12;101207.63;;;11.50;97.76
3142;BME280;1581;51.568;6.998;2022-11-27T12:48:45;101210.59;;;11.55;98.19
3142;BME280;1581;51.568;6.998;2022-11-27T12:51:21;101214.94;;;11.19;95.15
3142;BME280;1581;51.568;6.998;2022-11-27T12:53:56;101214.06;;;11.41;96.21
3142;BME280;1581;51.568;6.998;2022-11-27T12:56:30;101209.78;;;11.54;96.94
3142;BME280;1581;51.568;6.998;2022-11-27T12:59:08;101196.69;;;11.59;98.52
3142;BME280;1581;51.568;6.998;2022-11-27T13:01:42;101192.66;;;11.63;98.35
3142;BME280;1581;51.568;6.998;2022-11-27T13:04:31;101182.78;;;11.64;96.17
3142;BME280;1581;51.568;6.998;2022-11-27T13:07:09;101178.81;;;11.31;95.15
3142;BME280;1581;51.568;6.998;2022-11-27T13:09:48;101168.31;;;11.44;95.44
3142;BME280;1581;51.568;6.998;2022-11-27T13:12:29;101162.81;;;11.45;95.75
3142;BME280;1581;51.568;6.998;2022-11-27T13:15:07;101162.81;;;11.45;96.40
3142;BME280;1581;51.568;6.998;2022-11-27T13:17:42;101144.94;;;11.46;96.93
3142;BME280;1581;51.568;6.998;2022-11-27T13:20:16;101153.72;;;11.54;97.00
3142;BME280;1581;51.568;6.998;2022-11-27T13:22:46;101146.16;;;11.58;97.38
3142;BME280;1581;51.568;6.998;2022-11-27T13:25:15;101150.38;;;11.67;96.83
3142;BME280;1581;51.568;6.998;2022-11-27T13:27:47;101140.00;;;11.72;95.47
3142;BME280;1581;51.568;6.998;2022-11-27T13:30:21;101134.66;;;11.72;95.82
3142;BME280;1581;51.568;6.998;2022-11-27T13:32:52;101137.78;;;11.75;95.18
3142;BME280;1581;51.568;6.998;2022-11-27T13:35:26;101124.78;;;11.72;95.54
3142;BME280;1581;51.568;6.998;2022-11-27T13:38:00;101132.25;;;11.77;95.19
3142;BME280;1581;51.568;6.998;2022-11-27T13:40:38;101136.69;;;11.70;95.21
3142;BME280;1581;51.568;6.998;2022-11-27T13:43:18;101130.50;;;11.69;95.81
3142;BME280;1581;51.568;6.998;2022-11-27T13:45:47;101134.72;;;11.64;96.95